createdAt,value
2023-07-03T09:15:04.696Z,21.5
2023-07-03T09:28:03.118Z,21.9
2023-07-03T09:41:03.314Z,22.0
2023-07-03T09:54:03.186Z,22.3
2023-07-03T10:07:03.354Z,22.3
2023-07-03T10:20:03.271Z,23.6
2023-07-03T10:33:03.331Z,24.0
2023-07-03T10:46:03.301Z,23.2
2023-07-03T10:59:03.344Z,24.1
2023-07-03T11:12:03.389Z,24.6
2023-07-03T11:25:03.491Z,23.6
2023-07-03T11:51:03.500Z,25.1
2023-07-03T12:04:03.690Z,26.0
2023-07-03T12:17:03.626Z,27.1
2023-07-03T12:30:03.587Z,26.2
2023-07-03T12:43:03.649Z,26.1
2023-07-03T12:56:03.681Z,26.1
2023-07-03T13:09:03.772Z,26.1
2023-07-03T13:22:03.720Z,26.0
2023-07-03T13:35:03.741Z,26.4
2023-07-03T13:48:03.741Z,25.7
2023-07-03T14:01:10.507Z,25.6
2023-07-03T14:14:03.879Z,26.2
2023-07-03T14:27:03.861Z,25.2
2023-07-03T14:40:03.843Z,25.3
2023-07-03T14:53:03.888Z,25.3
2023-07-03T15:06:03.905Z,25.2
2023-07-03T15:19:03.916Z,24.3
2023-07-03T15:32:03.909Z,24.0
2023-07-03T15:45:03.931Z,24.0
2023-07-03T15:58:03.981Z,24.4
2023-07-03T16:11:05.759Z,24.6
2023-07-03T16:24:04.034Z,25.2
2023-07-03T16:37:04.048Z,26.4
2023-07-03T16:50:04.061Z,26.9
2023-07-03T17:03:04.146Z,26.3
2023-07-03T17:16:04.160Z,25.6
2023-07-03T17:29:04.202Z,24.7
2023-07-03T17:42:04.197Z,24.3
2023-07-03T17:55:04.186Z,23.8
2023-07-03T18:08:04.211Z,23.3
2023-07-03T18:21:04.275Z,22.6
2023-07-03T18:34:04.307Z,22.3
2023-07-03T18:47:04.282Z,21.9
2023-07-03T19:00:04.350Z,22.0
2023-07-03T19:13:04.346Z,21.4
2023-07-03T19:26:04.378Z,21.4
2023-07-03T19:39:04.429Z,21.4
2023-07-03T19:52:04.420Z,21.8
2023-07-03T20:05:04.455Z,21.7
2023-07-03T20:18:04.473Z,21.3
2023-07-03T20:31:04.457Z,21.3
2023-07-03T20:44:04.478Z,21.5
2023-07-03T20:57:04.523Z,21.4
2023-07-03T21:10:04.584Z,21.2
2023-07-03T21:23:04.583Z,19.8
2023-07-03T21:36:04.546Z,18.9
2023-07-03T21:49:04.573Z,18.3
2023-07-03T22:02:04.579Z,18.1
2023-07-03T22:15:04.569Z,17.8
2023-07-03T22:28:04.568Z,18.0
2023-07-03T22:41:05.969Z,17.8
2023-07-03T22:54:04.654Z,17.6
2023-07-03T23:07:04.642Z,17.8
2023-07-03T23:20:04.703Z,17.5
2023-07-03T23:33:04.711Z,17.2
2023-07-03T23:46:04.739Z,17.2
2023-07-03T23:59:04.827Z,17.3
